Time;durP1;ratioP1;P1;durP2;ratioP2;P2;SDS_P1;SDS_P2;PMS_P1;PMS_P2;Temp;Humidity;BMP_temperature;BMP_pressure;BME280_temperature;BME280_humidity;BME280_pressure;Samples;Min_cycle;Max_cycle;Signal;HPM_P1;HPM_P2
2023/03/14 00:01:34;;;;;;;9.00;5.40;;;;;;;9.23;72.42;98814.91;102508;279;105486;-59
2023/03/14 00:04:15;;;;;;;9.50;5.60;;;;;;;9.21;72.30;98821.73;102513;279;114189;-61
2023/03/14 00:06:52;;;;;;;9.60;6.00;;;;;;;9.25;72.35;98809.84;102532;278;95123;-61
2023/03/14 00:09:30;;;;;;;8.70;5.30;;;;;;;9.26;72.30;98805.94;102527;278;98120;-61
2023/03/14 00:12:09;;;;;;;13.80;6.20;;;;;;;9.24;72.10;98809.06;102506;279;120982;-61
2023/03/14 00:14:45;;;;;;;10.00;5.40;;;;;;;9.24;71.94;98797.64;102536;279;104609;-56
2023/03/14 00:17:23;;;;;;;8.60;5.40;;;;;;;9.24;71.90;98802.23;102484;279;114428;-57
2023/03/14 00:20:07;;;;;;;9.90;5.50;;;;;;;9.25;71.79;98791.48;102495;279;94694;-56
2023/03/14 00:22:46;;;;;;;10.90;6.40;;;;;;;9.24;71.86;98794.48;102517;279;97749;-56
2023/03/14 00:25:23;;;;;;;10.80;5.50;;;;;;;9.21;71.71;98791.30;102509;279;119748;-57
2023/03/14 00:28:00;;;;;;;9.80;6.00;;;;;;;9.23;71.67;98788.51;102523;279;104275;-59
2023/03/14 00:30:40;;;;;;;9.40;5.70;;;;;;;9.22;71.69;98782.77;102519;279;114488;-59
2023/03/14 00:33:20;;;;;;;8.40;5.80;;;;;;;9.19;71.42;98779.06;102521;278;95409;-58
2023/03/14 00:36:05;;;;;;;11.20;5.90;;;;;;;9.21;71.30;98778.29;102506;279;97965;-59
2023/03/14 00:38:41;;;;;;;10.70;5.80;;;;;;;9.17;71.48;98776.13;102555;279;121928;-57
2023/03/14 00:41:20;;;;;;;7.90;5.20;;;;;;;9.11;71.63;98779.95;102521;279;105678;-56
2023/03/14 00:43:59;;;;;;;9.90;5.40;;;;;;;9.10;71.58;98777.52;102507;279;116280;-60
2023/03/14 00:46:38;;;;;;;9.70;5.50;;;;;;;9.08;71.58;98771.60;102485;267;96228;-60
2023/03/14 00:49:18;;;;;;;11.20;5.80;;;;;;;9.09;71.35;98757.33;102502;278;97368;-61
2023/03/14 00:51:54;;;;;;;10.70;6.30;;;;;;;9.13;71.09;98749.43;102499;278;119376;-61
2023/03/14 00:54:31;;;;;;;12.50;6.40;;;;;;;9.15;71.15;98747.30;102494;279;105005;-56
2023/03/14 00:57:10;;;;;;;11.60;6.60;;;;;;;9.12;71.29;98749.73;102490;279;114810;-55
2023/03/14 00:59:51;;;;;;;9.80;5.80;;;;;;;9.06;71.36;98747.59;102519;278;94429;-56
2023/03/14 01:02:27;;;;;;;9.60;5.90;;;;;;;8.99;71.39;98752.15;102486;279;97668;-57
2023/03/14 01:05:07;;;;;;;10.80;6.10;;;;;;;8.93;71.36;98746.03;102484;279;119722;-60
2023/03/14 01:07:44;;;;;;;13.10;6.30;;;;;;;8.85;71.39;98738.34;102504;279;105314;-60
2023/03/14 01:10:31;;;;;;;11.70;6.70;;;;;;;8.78;71.59;98747.96;102482;279;114168;-61
2023/03/14 01:13:12;;;;;;;11.00;5.80;;;;;;;8.70;71.65;98747.36;102504;279;97212;-60
2023/03/14 01:15:52;;;;;;;10.60;6.10;;;;;;;8.64;71.82;98750.01;102498;279;97508;-60
2023/03/14 01:18:31;;;;;;;11.80;6.50;;;;;;;8.60;71.91;98740.39;102485;279;121103;-59
2023/03/14 01:21:16;;;;;;;10.30;6.70;;;;;;;8.59;71.89;98739.28;102485;279;105325;-59
2023/03/14 01:23:49;;;;;;;;;;;;;;;8.55;72.02;98737.69;102508;278;114290;-59
2023/03/14 01:26:27;;;;;;;9.40;6.30;;;;;;;8.52;72.17;98733.86;102469;279;94800;-59
2023/03/14 01:29:03;;;;;;;9.70;6.10;;;;;;;8.51;72.08;98735.80;102539;279;97727;-58
2023/03/14 01:31:46;;;;;;;11.40;6.10;;;;;;;8.45;72.07;98735.31;102498;279;120771;-57
2023/03/14 01:34:23;;;;;;;11.30;6.90;;;;;;;8.38;72.15;98724.55;102555;279;105886;-57
2023/03/14 01:37:02;;;;;;;9.70;6.40;;;;;;;8.30;72.31;98724.80;102519;279;115420;-58
2023/03/14 01:39:37;;;;;;;13.00;6.70;;;;;;;8.22;72.33;98722.98;102481;279;96105;-62
2023/03/14 01:42:14;;;;;;;;;;;;;;;8.17;72.44;98721.94;102507;279;97057;-59
2023/03/14 01:45:01;;;;;;;10.90;6.00;;;;;;;8.13;72.45;98725.31;102423;279;121392;-58
2023/03/14 01:47:39;;;;;;;11.50;6.70;;;;;;;8.17;72.56;98730.55;102495;279;105375;-55
2023/03/14 01:50:22;;;;;;;9.90;6.10;;;;;;;8.17;72.74;98726.16;102503;279;112425;-63
2023/03/14 01:53:01;;;;;;;8.60;6.30;;;;;;;8.17;72.62;98726.00;102461;279;94882;-60
2023/03/14 01:55:38;;;;;;;11.10;6.60;;;;;;;8.14;72.57;98723.31;102536;279;96685;-61
2023/03/14 01:58:19;;;;;;;11.60;6.20;;;;;;;8.09;72.63;98723.48;102483;279;119271;-58
2023/03/14 02:00:59;;;;;;;11.10;6.70;;;;;;;8.03;72.64;98727.02;102533;279;105569;-60
2023/03/14 02:03:39;;;;;;;12.70;7.10;;;;;;;7.96;72.56;98716.63;102498;279;113847;-55
2023/03/14 02:06:18;;;;;;;9.40;5.70;;;;;;;7.93;72.64;98707.71;102507;279;96417;-57
2023/03/14 02:08:58;;;;;;;11.50;6.30;;;;;;;7.93;72.74;98706.34;102528;279;96912;-62
2023/03/14 02:11:35;;;;;;;10.60;6.60;;;;;;;7.93;72.71;98706.92;102443;278;120865;-62
2023/03/14 02:14:24;;;;;;;9.60;6.70;;;;;;;7.91;72.91;98705.14;102476;279;104219;-60
2023/03/14 02:17:02;;;;;;;11.60;6.20;;;;;;;7.90;72.84;98701.55;102519;279;113192;-60
2023/03/14 02:20:05;;;;;;;10.70;6.20;;;;;;;7.86;72.90;98698.55;102477;279;93479;-55
2023/03/14 02:22:44;;;;;;;10.50;6.40;;;;;;;7.81;72.77;98698.20;102501;279;97482;-56
2023/03/14 02:25:33;;;;;;;10.70;6.10;;;;;;;7.76;72.82;98693.71;102483;279;120323;-61
2023/03/14 02:28:09;;;;;;;10.90;6.40;;;;;;;7.67;72.97;98687.54;102473;279;105399;-56
2023/03/14 02:30:53;;;;;;;9.50;5.90;;;;;;;7.61;72.90;98674.39;102487;279;114670;-56
2023/03/14 02:33:29;;;;;;;10.70;5.80;;;;;;;7.61;73.04;98663.88;102475;279;97110;-60
2023/03/14 02:36:07;;;;;;;11.20;5.70;;;;;;;7.57;73.10;98663.40;102528;278;98263;-60
2023/03/14 02:38:49;;;;;;;9.40;5.70;;;;;;;7.55;73.30;98652.40;102534;279;121320;-56
2023/03/14 02:41:30;;;;;;;11.10;6.30;;;;;;;7.54;73.29;98639.44;102508;279;105050;-56
2023/03/14 02:44:10;;;;;;;12.40;6.50;;;;;;;7.52;73.38;98631.96;102502;279;112346;-57
2023/03/14 02:46:49;;;;;;;11.40;6.40;;;;;;;7.51;73.33;98627.83;102532;279;94031;-57
2023/03/14 02:49:33;;;;;;;11.60;6.50;;;;;;;7.47;73.33;98635.16;102563;279;97749;-57
2023/03/14 02:52:12;;;;;;;11.00;6.30;;;;;;;7.41;73.31;98637.46;102520;279;120139;-57
2023/03/14 02:54:51;;;;;;;11.00;5.90;;;;;;;7.33;73.38;98640.75;102510;278;105374;-59
2023/03/14 02:57:25;;;;;;;9.80;5.70;;;;;;;7.28;73.47;98636.42;102487;278;113926;-59
2023/03/14 03:00:07;;;;;;;10.50;6.40;;;;;;;7.28;73.46;98632.21;102381;278;93050;-55
2023/03/14 03:02:49;;;;;;;11.70;6.70;;;;;;;7.30;73.54;98627.48;102505;278;97524;-54
2023/03/14 03:05:31;;;;;;;10.90;6.00;;;;;;;7.36;73.51;98629.45;102505;279;120581;-61
2023/03/14 03:08:10;;;;;;;12.00;6.60;;;;;;;7.33;73.52;98639.88;102542;279;106018;-62
2023/03/14 03:10:53;;;;;;;13.80;6.50;;;;;;;7.30;73.54;98643.81;102508;267;114055;-62
2023/03/14 03:13:38;;;;;;;8.30;6.10;;;;;;;7.28;73.47;98641.10;102512;279;96288;-62
2023/03/14 03:16:22;;;;;;;9.30;5.70;;;;;;;7.27;73.41;98642.34;102533;278;97138;-61
2023/03/14 03:19:03;;;;;;;9.90;5.90;;;;;;;7.27;73.47;98646.67;102498;279;120161;-57
2023/03/14 03:21:43;;;;;;;11.40;5.80;;;;;;;7.26;73.38;98640.68;102473;279;104510;-56
2023/03/14 03:24:24;;;;;;;10.60;6.10;;;;;;;7.28;73.39;98629.81;102482;279;114327;-57
2023/03/14 03:27:03;;;;;;;9.40;5.70;;;;;;;7.24;73.42;98631.97;102492;279;94828;-57
2023/03/14 03:29:41;;;;;;;9.60;6.00;;;;;;;7.21;73.41;98630.45;102508;279;97666;-58
2023/03/14 03:32:19;;;;;;;9.70;6.00;;;;;;;7.18;73.28;98625.46;102500;278;120590;-57
2023/03/14 03:34:56;;;;;;;11.30;5.50;;;;;;;7.15;73.39;98621.17;102565;279;105959;-61
2023/03/14 03:37:30;;;;;;;8.50;5.30;;;;;;;7.11;73.40;98619.70;102477;279;113608;-60
2023/03/14 03:40:07;;;;;;;8.10;5.80;;;;;;;7.07;73.56;98624.34;102511;279;95096;-56
2023/03/14 03:42:47;;;;;;;8.60;5.70;;;;;;;7.01;73.59;98630.16;102498;279;97995;-56
2023/03/14 03:45:25;;;;;;;8.70;5.20;;;;;;;7.02;73.59;98627.56;102511;279;120817;-60
2023/03/14 03:48:09;;;;;;;9.80;6.50;;;;;;;7.00;73.61;98628.55;102489;279;105150;-59
2023/03/14 03:50:50;;;;;;;6.60;4.70;;;;;;;7.00;73.64;98625.30;102500;279;113128;-59
2023/03/14 03:53:27;;;;;;;9.60;5.70;;;;;;;6.93;73.60;98632.91;102510;279;92778;-57
2023/03/14 03:56:02;;;;;;;9.80;4.80;;;;;;;6.89;73.75;98622.19;102478;279;98332;-57
2023/03/14 03:58:43;;;;;;;8.50;5.20;;;;;;;6.84;73.80;98613.19;102492;279;120002;-55
2023/03/14 04:01:22;;;;;;;11.80;6.30;;;;;;;6.79;73.77;98620.84;102509;279;105788;-55
2023/03/14 04:04:01;;;;;;;9.50;5.20;;;;;;;6.77;73.82;98624.02;102447;279;113521;-56
2023/03/14 04:06:40;;;;;;;9.80;5.20;;;;;;;6.77;73.82;98623.69;102522;278;93950;-57
2023/03/14 04:09:19;;;;;;;10.30;5.70;;;;;;;6.77;73.91;98622.98;102535;279;98583;-56
2023/03/14 04:11:56;;;;;;;8.70;5.00;;;;;;;6.77;73.86;98628.81;102485;279;120461;-57
2023/03/14 04:14:30;;;;;;;8.60;5.40;;;;;;;6.76;73.80;98624.22;102520;279;106156;-54
2023/03/14 04:17:07;;;;;;;9.80;5.30;;;;;;;6.71;73.80;98633.19;102513;278;114237;-55
2023/03/14 04:19:50;;;;;;;7.20;4.50;;;;;;;6.67;73.81;98630.21;102457;279;93988;-60
2023/03/14 04:22:25;;;;;;;8.50;4.60;;;;;;;6.67;73.76;98623.86;102362;279;98089;-60
2023/03/14 04:25:04;;;;;;;11.30;4.80;;;;;;;6.62;73.94;98615.32;102509;278;120606;-58
2023/03/14 04:27:43;;;;;;;7.80;4.60;;;;;;;6.61;73.96;98611.20;102483;279;104216;-59
2023/03/14 04:30:23;;;;;;;7.30;4.50;;;;;;;6.66;73.97;98617.88;102498;279;114589;-59
2023/03/14 04:33:07;;;;;;;8.40;4.70;;;;;;;6.67;73.93;98620.88;102474;279;94614;-60
2023/03/14 04:35:47;;;;;;;8.20;4.30;;;;;;;6.66;73.83;98615.52;102521;279;98200;-60
2023/03/14 04:38:27;;;;;;;7.80;5.00;;;;;;;6.69;73.76;98617.96;102512;279;120790;-56
2023/03/14 04:41:08;;;;;;;8.20;4.80;;;;;;;6.67;73.68;98607.92;102510;279;105450;-55
2023/03/14 04:43:45;;;;;;;6.90;4.50;;;;;;;6.64;73.63;98601.77;102529;279;114954;-62
2023/03/14 04:46:25;;;;;;;9.00;4.30;;;;;;;6.64;73.72;98597.00;102419;279;95620;-60
2023/03/14 04:48:59;;;;;;;8.50;4.90;;;;;;;6.67;73.71;98583.20;102491;278;97175;-61
2023/03/14 04:51:36;;;;;;;9.00;4.60;;;;;;;6.74;73.64;98581.91;102507;279;120384;-61
2023/03/14 04:54:13;;;;;;;7.70;4.80;;;;;;;6.80;73.68;98571.01;102487;278;105927;-56
2023/03/14 04:56:50;;;;;;;8.60;4.50;;;;;;;6.86;73.43;98566.25;102532;279;113794;-56
2023/03/14 04:59:29;;;;;;;7.00;4.50;;;;;;;6.92;73.24;98562.76;102498;279;92500;-56
2023/03/14 05:02:09;;;;;;;10.10;5.10;;;;;;;6.98;73.10;98560.96;102518;279;96725;-55
2023/03/14 05:04:52;;;;;;;7.50;4.00;;;;;;;7.04;73.15;98559.79;102465;279;120547;-57
2023/03/14 05:07:32;;;;;;;10.50;4.80;;;;;;;7.08;72.94;98559.61;102517;279;105809;-56
2023/03/14 05:10:08;;;;;;;7.80;4.40;;;;;;;7.11;72.80;98555.88;102486;279;112614;-59
2023/03/14 05:12:45;;;;;;;7.40;4.20;;;;;;;7.18;72.81;98545.68;102482;279;93171;-60
2023/03/14 05:15:23;;;;;;;7.50;4.40;;;;;;;7.20;72.74;98543.84;102517;279;97427;-56
2023/03/14 05:18:05;;;;;;;7.00;4.40;;;;;;;7.25;72.46;98535.59;102528;279;121629;-59
2023/03/14 05:20:47;;;;;;;6.10;4.20;;;;;;;7.28;72.56;98532.46;102517;279;105350;-60
2023/03/14 05:23:26;;;;;;;7.60;4.50;;;;;;;7.31;72.24;98534.27;102522;279;113862;-57
2023/03/14 05:26:03;;;;;;;7.10;4.50;;;;;;;7.33;72.15;98544.64;102493;278;93409;-56
2023/03/14 05:28:38;;;;;;;8.10;5.10;;;;;;;7.36;71.90;98544.53;102496;278;96534;-60
2023/03/14 05:31:14;;;;;;;7.00;4.00;;;;;;;7.39;71.75;98536.38;102498;266;120541;-59
2023/03/14 05:33:49;;;;;;;8.50;4.40;;;;;;;7.45;71.56;98529.31;102561;279;104440;-61
2023/03/14 05:36:28;;;;;;;;;;;;;;;7.53;71.76;98515.42;102491;279;113507;-60
2023/03/14 05:39:05;;;;;;;6.70;4.40;;;;;;;7.60;71.55;98508.44;102531;278;95400;-59
2023/03/14 05:41:43;;;;;;;6.80;4.10;;;;;;;7.70;71.23;98506.55;102523;278;98139;-60
2023/03/14 05:44:22;;;;;;;5.70;3.90;;;;;;;7.81;71.14;98503.34;102541;278;120016;-59
2023/03/14 05:47:00;;;;;;;6.80;4.40;;;;;;;7.98;70.78;98503.46;102503;278;103607;-57
2023/03/14 05:49:39;;;;;;;7.30;3.80;;;;;;;8.23;70.60;98493.70;102507;279;113253;-58
2023/03/14 05:52:16;;;;;;;5.20;3.40;;;;;;;8.55;70.43;98479.37;102488;279;95438;-58
2023/03/14 05:54:57;;;;;;;6.10;3.80;;;;;;;9.77;70.09;98480.14;102487;278;97202;-56
2023/03/14 05:57:42;;;;;;;7.40;3.90;;;;;;;11.07;65.91;98475.16;102517;279;121053;-57
2023/03/14 06:00:19;;;;;;;8.20;4.00;;;;;;;12.20;65.48;98464.29;102512;278;103280;-56
2023/03/14 06:02:58;;;;;;;7.80;4.30;;;;;;;13.61;63.97;98453.46;102525;278;113215;-58
2023/03/14 06:05:33;;;;;;;5.90;4.10;;;;;;;14.66;62.60;98437.11;102517;278;92662;-59
2023/03/14 06:08:09;;;;;;;6.90;3.90;;;;;;;15.60;61.69;98433.96;102545;279;97373;-57
2023/03/14 06:10:50;;;;;;;7.70;4.00;;;;;;;14.41;59.15;98439.27;102534;279;120683;-57
2023/03/14 06:13:24;;;;;;;6.00;3.90;;;;;;;12.80;59.57;98434.56;102614;278;106168;-60
2023/03/14 06:16:05;;;;;;;6.20;4.50;;;;;;;11.81;60.09;98444.27;102501;279;114084;-60
2023/03/14 06:18:40;;;;;;;9.00;4.50;;;;;;;11.01;60.44;98447.55;102542;279;94072;-60
2023/03/14 06:21:16;;;;;;;6.60;4.30;;;;;;;10.52;61.34;98450.37;102525;278;97913;-59
2023/03/14 06:23:53;;;;;;;5.70;4.20;;;;;;;10.26;61.94;98459.27;102554;278;120322;-57
2023/03/14 06:26:29;;;;;;;5.70;4.10;;;;;;;10.16;62.46;98462.55;102498;279;104687;-57
2023/03/14 06:29:04;;;;;;;7.90;4.10;;;;;;;10.11;62.75;98470.89;102525;279;113874;-60
2023/03/14 06:31:41;;;;;;;8.50;4.60;;;;;;;9.95;62.71;98476.80;102575;279;92973;-59
2023/03/14 06:34:19;;;;;;;8.40;3.90;;;;;;;9.86;63.34;98467.67;102553;279;97050;-55
2023/03/14 06:36:57;;;;;;;6.20;4.00;;;;;;;10.45;63.62;98463.28;102522;279;119052;-58
2023/03/14 06:39:33;;;;;;;8.40;5.20;;;;;;;11.03;63.18;98459.67;102547;279;105163;-61
2023/03/14 06:42:08;;;;;;;7.10;4.50;;;;;;;11.60;62.74;98461.36;102524;279;114705;-59
2023/03/14 06:44:44;;;;;;;7.20;4.10;;;;;;;12.43;61.18;98458.48;102530;279;93072;-57
2023/03/14 06:47:21;;;;;;;7.40;3.90;;;;;;;13.35;61.36;98448.91;102513;278;96916;-56
2023/03/14 06:49:57;;;;;;;7.70;4.20;;;;;;;13.71;60.46;98437.41;102494;279;119051;-57
2023/03/14 06:52:40;;;;;;;7.90;4.20;;;;;;;13.82;58.62;98439.80;102516;278;105259;-57
2023/03/14 06:55:18;;;;;;;7.40;4.40;;;;;;;13.93;58.59;98443.70;102519;279;115826;-57
2023/03/14 06:58:01;;;;;;;7.20;4.20;;;;;;;13.49;57.02;98442.89;102494;279;95452;-55
2023/03/14 07:00:44;;;;;;;8.20;4.50;;;;;;;13.23;57.53;98458.39;102541;279;97489;-55
2023/03/14 07:03:23;;;;;;;7.30;4.00;;;;;;;12.91;57.97;98467.08;102501;279;121203;-58
2023/03/14 07:06:00;;;;;;;6.80;4.20;;;;;;;12.66;58.47;98469.39;102479;279;104741;-60
2023/03/14 07:08:37;;;;;;;7.20;4.80;;;;;;;12.57;58.84;98475.48;102524;279;115141;-60
2023/03/14 07:11:17;;;;;;;5.90;3.70;;;;;;;12.61;58.49;98479.06;102494;278;94638;-62
2023/03/14 07:13:57;;;;;;;5.20;3.70;;;;;;;12.79;58.83;98484.14;102520;278;97626;-59
2023/03/14 07:16:37;;;;;;;6.60;3.90;;;;;;;12.98;58.78;98485.98;102390;279;122467;-59
2023/03/14 07:19:18;;;;;;;6.00;4.20;;;;;;;13.27;59.25;98490.64;102500;278;104639;-56
2023/03/14 07:21:52;;;;;;;6.60;4.20;;;;;;;13.81;58.62;98486.09;102526;278;113902;-56
2023/03/14 07:24:32;;;;;;;7.20;4.00;;;;;;;14.46;58.36;98475.23;102490;278;94762;-62
2023/03/14 07:27:11;;;;;;;4.70;3.50;;;;;;;15.53;57.97;98466.98;102532;278;98027;-62
2023/03/14 07:29:46;;;;;;;6.80;3.70;;;;;;;16.38;56.84;98474.89;102552;278;121050;-60
2023/03/14 07:32:25;;;;;;;6.50;3.50;;;;;;;16.63;55.76;98463.36;102534;278;104801;-61
2023/03/14 07:35:03;;;;;;;6.10;3.80;;;;;;;17.11;54.81;98459.15;102145;278;527670;-59
2023/03/14 07:37:45;;;;;;;7.90;4.00;;;;;;;18.30;54.78;98455.80;102485;278;93401;-59
2023/03/14 07:40:22;;;;;;;5.70;3.90;;;;;;;19.67;54.34;98449.81;102573;278;95467;-60
2023/03/14 07:43:05;;;;;;;8.50;3.80;;;;;;;20.49;52.62;98453.65;102490;278;120069;-59
2023/03/14 07:45:40;;;;;;;5.60;3.60;;;;;;;20.39;50.94;98461.88;102441;279;104964;-59
2023/03/14 07:48:26;;;;;;;5.60;3.60;;;;;;;19.76;49.06;98467.00;102485;278;115226;-60
2023/03/14 07:51:10;;;;;;;6.60;3.80;;;;;;;19.12;49.38;98461.19;102455;278;94342;-60
2023/03/14 07:53:54;;;;;;;7.90;4.30;;;;;;;19.34;50.23;98459.66;102465;279;97970;-60
2023/03/14 07:56:37;;;;;;;5.80;3.80;;;;;;;20.69;49.26;98442.47;102493;279;119993;-60
2023/03/14 07:59:22;;;;;;;4.90;3.60;;;;;;;21.36;49.60;98440.11;102502;278;104768;-56
2023/03/14 08:01:59;;;;;;;4.70;3.60;;;;;;;22.35;49.33;98448.14;102487;279;114460;-57
2023/03/14 08:04:39;;;;;;;5.50;3.60;;;;;;;23.17;47.79;98449.15;102489;278;94594;-62
2023/03/14 08:07:22;;;;;;;7.30;4.00;;;;;;;23.13;45.13;98453.50;102498;278;96709;-63
2023/03/14 08:10:02;;;;;;;5.90;3.70;;;;;;;22.07;44.65;98451.02;102461;278;121804;-62
2023/03/14 08:12:44;;;;;;;4.70;3.30;;;;;;;22.01;45.90;98454.03;102501;279;103659;-61
2023/03/14 08:15:19;;;;;;;6.40;3.90;;;;;;;22.20;44.65;98460.17;102459;278;115427;-65
2023/03/14 08:17:56;;;;;;;8.30;3.80;;;;;;;21.58;44.42;98469.02;102476;279;94379;-64
2023/03/14 08:20:33;;;;;;;5.20;3.90;;;;;;;21.09;44.95;98467.75;102485;278;97339;-65
2023/03/14 08:23:10;;;;;;;5.30;3.50;;;;;;;21.00;44.33;98461.48;102510;278;120959;-66
2023/03/14 08:25:51;;;;;;;5.20;3.30;;;;;;;21.03;44.87;98456.38;102508;278;105596;-61
2023/03/14 08:28:35;;;;;;;5.10;3.50;;;;;;;20.93;44.94;98460.97;102434;278;113931;-55
2023/03/14 08:31:10;;;;;;;7.00;3.90;;;;;;;20.57;45.33;98467.60;102496;279;94204;-63
2023/03/14 08:33:46;;;;;;;6.40;3.10;;;;;;;20.17;45.04;98467.70;102579;278;98192;-61
2023/03/14 08:36:21;;;;;;;4.50;3.10;;;;;;;19.53;44.30;98472.23;102499;278;120088;-61
2023/03/14 08:39:00;;;;;;;4.30;3.10;;;;;;;18.72;45.14;98477.27;102545;279;105904;-57
2023/03/14 08:41:39;;;;;;;7.10;3.10;;;;;;;18.28;45.34;98478.14;102523;278;114307;-56
2023/03/14 08:44:16;;;;;;;4.60;3.10;;;;;;;18.29;46.00;98479.72;102487;278;94948;-57
2023/03/14 08:46:52;;;;;;;7.90;3.00;;;;;;;18.37;46.67;98478.19;102548;279;97017;-59
2023/03/14 08:49:30;;;;;;;4.90;3.10;;;;;;;18.42;46.28;98478.89;102504;278;120526;-57
2023/03/14 08:52:08;;;;;;;6.00;4.20;;;;;;;18.35;45.42;98471.59;102493;278;106190;-56
2023/03/14 08:54:51;;;;;;;5.50;3.40;;;;;;;18.20;45.12;98466.89;102503;279;114822;-61
2023/03/14 08:57:31;;;;;;;4.50;3.10;;;;;;;17.80;46.20;98469.26;102456;278;93688;-61
2023/03/14 09:00:14;;;;;;;6.00;4.30;;;;;;;17.90;46.72;98465.58;102507;279;97367;-60
2023/03/14 09:02:54;;;;;;;5.40;3.40;;;;;;;18.25;46.05;98466.91;102504;278;119066;-61
2023/03/14 09:05:35;;;;;;;5.80;3.40;;;;;;;18.13;46.22;98465.80;102480;279;105542;-62
2023/03/14 09:08:10;;;;;;;5.80;3.80;;;;;;;18.48;46.19;98461.25;102521;278;113486;-63
2023/03/14 09:10:47;;;;;;;4.60;3.50;;;;;;;18.50;45.86;98467.31;102526;278;94506;-62
2023/03/14 09:13:24;;;;;;;5.90;3.60;;;;;;;18.34;46.17;98461.21;102549;279;97990;-61
2023/03/14 09:16:01;;;;;;;5.40;3.40;;;;;;;18.10;46.53;98459.42;102475;279;120954;-60
2023/03/14 09:18:46;;;;;;;6.50;3.60;;;;;;;17.82;46.55;98458.66;102520;279;106008;-60
2023/03/14 09:21:22;;;;;;;6.00;3.40;;;;;;;17.67;46.80;98448.26;102509;278;114231;-60
2023/03/14 09:23:58;;;;;;;4.50;3.20;;;;;;;17.48;46.32;98440.09;102511;279;93996;-62
2023/03/14 09:26:38;;;;;;;4.80;3.40;;;;;;;17.32;46.74;98441.98;102543;279;97721;-63
2023/03/14 09:29:18;;;;;;;10.40;4.70;;;;;;;17.25;46.58;98434.31;102497;278;121284;-56
2023/03/14 09:31:53;;;;;;;4.90;3.10;;;;;;;17.19;46.52;98439.15;102492;279;105620;-56
2023/03/14 09:34:32;;;;;;;3.90;2.80;;;;;;;17.18;47.06;98432.83;102527;278;113419;-63
2023/03/14 09:37:16;;;;;;;3.80;2.90;;;;;;;17.29;47.23;98432.11;102509;275;94572;-63
2023/03/14 09:39:54;;;;;;;4.90;3.30;;;;;;;17.31;46.72;98427.89;102498;279;97806;-61
2023/03/14 09:42:36;;;;;;;4.30;2.90;;;;;;;17.30;46.73;98426.21;102471;278;121377;-62
2023/03/14 09:45:20;;;;;;;4.70;2.90;;;;;;;17.25;47.23;98417.78;102497;278;105751;-60
2023/03/14 09:47:59;;;;;;;7.40;3.90;;;;;;;17.29;47.46;98415.35;102540;279;115356;-57
2023/03/14 09:50:41;;;;;;;12.50;4.00;;;;;;;17.30;46.75;98415.19;102481;278;94156;-58
2023/03/14 09:53:22;;;;;;;6.50;4.00;;;;;;;17.36;47.42;98406.48;102562;279;96534;-60
2023/03/14 09:56:01;;;;;;;5.00;2.90;;;;;;;17.46;47.78;98400.95;102505;278;121227;-61
2023/03/14 09:58:47;;;;;;;5.70;3.30;;;;;;;17.39;47.14;98396.14;102527;278;105582;-61
2023/03/14 10:01:26;;;;;;;5.00;3.50;;;;;;;17.43;47.05;98393.27;102511;279;113643;-60
2023/03/14 10:04:07;;;;;;;4.40;3.40;;;;;;;17.63;47.55;98388.20;102524;278;93389;-57
2023/03/14 10:06:47;;;;;;;4.80;3.00;;;;;;;17.84;47.67;98390.73;102526;279;97901;-58
2023/03/14 10:09:25;;;;;;;5.00;3.20;;;;;;;18.01;47.56;98381.45;102539;279;120521;-56
2023/03/14 10:12:02;;;;;;;6.20;3.70;;;;;;;18.00;48.00;98382.29;102520;279;106228;-57
2023/03/14 10:14:45;;;;;;;8.10;3.30;;;;;;;18.17;47.60;98392.85;102496;279;114674;-61
2023/03/14 10:17:23;;;;;;;4.80;3.20;;;;;;;18.26;47.66;98386.86;102479;279;93370;-60
2023/03/14 10:20:01;;;;;;;7.00;3.30;;;;;;;18.35;47.57;98387.48;102493;278;97667;-62
2023/03/14 10:22:41;;;;;;;7.10;3.40;;;;;;;18.25;47.07;98388.40;102489;278;120439;-61
2023/03/14 10:25:36;;;;;;;5.50;3.10;;;;;;;18.05;46.92;98389.04;102496;279;104100;-62
2023/03/14 10:28:29;;;;;;;5.40;3.30;;;;;;;17.83;46.88;98382.70;102532;279;113472;-61
2023/03/14 10:31:08;;;;;;;5.90;2.70;;;;;;;17.76;47.10;98381.79;102494;278;94822;-60
2023/03/14 10:34:02;;;;;;;6.90;4.00;;;;;;;17.68;47.20;98384.94;102499;278;97926;-61
2023/03/14 10:36:38;;;;;;;5.10;3.30;;;;;;;17.74;47.64;98382.34;102490;279;119131;-61
2023/03/14 10:39:43;;;;;;;5.20;3.10;;;;;;;17.66;47.57;98383.33;102475;279;105472;-60
2023/03/14 10:42:29;;;;;;;5.20;3.10;;;;;;;17.97;48.31;98375.75;102536;278;114831;-60
2023/03/14 10:45:36;;;;;;;5.80;3.20;;;;;;;18.43;48.25;98370.19;102515;278;94047;-63
2023/03/14 10:48:30;;;;;;;6.40;3.20;;;;;;;18.68;47.77;98369.34;102553;267;98584;-61
2023/03/14 10:51:13;;;;;;;5.40;3.10;;;;;;;18.69;46.60;98365.48;102487;279;120382;-61
2023/03/14 10:53:59;;;;;;;6.40;2.80;;;;;;;18.59;46.31;98367.30;102529;278;104250;-58
2023/03/14 10:56:40;;;;;;;7.40;3.00;;;;;;;18.38;46.46;98360.18;102523;278;114617;-56
2023/03/14 10:59:18;;;;;;;4.70;3.00;;;;;;;18.31;46.37;98360.36;102521;279;93739;-60
2023/03/14 11:02:03;;;;;;;4.70;2.80;;;;;;;18.10;46.35;98362.14;102497;279;97658;-60
2023/03/14 11:05:04;;;;;;;4.50;2.90;;;;;;;17.95;47.05;98358.94;102479;279;119856;-61
2023/03/14 11:07:45;;;;;;;4.60;3.10;;;;;;;17.91;46.99;98359.75;102467;279;105233;-60
2023/03/14 11:10:34;;;;;;;4.70;3.20;;;;;;;17.84;47.29;98362.65;102501;279;113350;-58
2023/03/14 11:13:24;;;;;;;6.60;2.70;;;;;;;17.73;47.51;98353.73;102564;278;94186;-58
2023/03/14 11:16:15;;;;;;;6.50;3.40;;;;;;;17.54;47.24;98360.23;102506;278;97263;-57
2023/03/14 11:19:28;;;;;;;4.10;3.20;;;;;;;17.38;47.14;98367.80;102554;278;121765;-61
2023/03/14 11:22:17;;;;;;;4.50;3.00;;;;;;;17.21;47.53;98372.77;102500;278;104452;-60
2023/03/14 11:25:27;;;;;;;5.90;3.20;;;;;;;17.14;48.12;98380.11;102472;278;114989;-57
2023/03/14 11:28:18;;;;;;;5.00;3.10;;;;;;;16.92;48.46;98384.80;102465;278;94288;-58
2023/03/14 11:31:06;;;;;;;7.00;3.70;;;;;;;16.60;48.65;98390.42;102470;278;98385;-57
2023/03/14 11:33:51;;;;;;;6.90;4.10;;;;;;;16.42;49.13;98396.23;102522;278;121125;-57
2023/03/14 11:36:32;;;;;;;6.90;3.40;;;;;;;16.25;49.02;98390.15;102519;278;102596;-58
2023/03/14 11:39:14;;;;;;;6.90;4.10;;;;;;;16.17;49.46;98382.36;102476;278;113966;-61
2023/03/14 11:41:54;;;;;;;10.10;5.40;;;;;;;16.13;49.54;98374.23;102466;278;94151;-62
2023/03/14 11:44:39;;;;;;;8.40;4.80;;;;;;;16.21;49.89;98372.72;102541;278;95865;-61
2023/03/14 11:47:22;;;;;;;7.60;3.80;;;;;;;16.31;49.88;98367.73;102485;279;121567;-61
2023/03/14 11:50:12;;;;;;;7.90;5.30;;;;;;;16.26;49.42;98367.96;102517;278;105469;-57
2023/03/14 11:52:55;;;;;;;10.90;4.30;;;;;;;16.18;49.38;98374.14;102479;278;113778;-57
2023/03/14 11:55:40;;;;;;;7.70;4.50;;;;;;;16.12;49.47;98371.41;102540;278;94733;-57
2023/03/14 11:58:21;;;;;;;7.30;3.80;;;;;;;16.14;49.51;98387.77;102548;278;97983;-61
2023/03/14 12:01:07;;;;;;;7.70;4.20;;;;;;;16.10;49.90;98394.78;102522;278;120626;-62
2023/03/14 12:03:56;;;;;;;7.60;4.30;;;;;;;16.08;50.00;98394.36;102489;278;104325;-58
2023/03/14 12:06:41;;;;;;;6.90;3.90;;;;;;;16.17;50.42;98384.02;102486;278;115086;-57
2023/03/14 12:09:21;;;;;;;7.10;4.10;;;;;;;16.34;50.28;98387.84;102516;278;93260;-58
2023/03/14 12:12:02;;;;;;;6.10;4.10;;;;;;;16.47;50.28;98377.63;102500;278;98066;-58
2023/03/14 12:14:54;;;;;;;9.10;4.40;;;;;;;16.58;50.33;98357.56;102468;278;120359;-61
2023/03/14 12:17:39;;;;;;;8.30;4.40;;;;;;;16.75;50.23;98363.61;102543;279;105690;-63
2023/03/14 12:20:24;;;;;;;7.60;4.30;;;;;;;16.87;50.26;98373.09;102496;278;113469;-61
2023/03/14 12:23:11;;;;;;;7.80;4.70;;;;;;;16.89;50.20;98379.59;102490;278;94469;-61
2023/03/14 12:25:50;;;;;;;6.40;4.50;;;;;;;16.60;49.88;98385.89;102560;278;97284;-61
2023/03/14 12:28:35;;;;;;;6.90;4.30;;;;;;;16.31;50.23;98387.30;102492;279;121163;-63
2023/03/14 12:31:45;;;;;;;7.00;4.10;;;;;;;16.14;50.64;98384.94;102492;278;105528;-63
2023/03/14 12:34:40;;;;;;;10.20;4.30;;;;;;;15.82;50.82;98394.59;102532;279;113532;-61